Time;durP1;ratioP1;P1;durP2;ratioP2;P2;SDS_P1;SDS_P2;PMS_P1;PMS_P2;Temp;Humidity;BMP_temperature;BMP_pressure;BME280_temperature;BME280_humidity;BME280_pressure;Samples;Min_cycle;Max_cycle;Signal;HPM_P1;HPM_P2
2022/01/19 00:00:28;;;;;;;25.30;16.30;;;4.70;99.90;;;;;;5093847;28;20180;-57
2022/01/19 00:02:54;;;;;;;23.30;15.77;;;4.70;99.90;;;;;;5093420;28;20233;-57
2022/01/19 00:05:20;;;;;;;27.85;16.13;;;4.80;99.90;;;;;;5093455;28;20668;-57
2022/01/19 00:07:45;;;;;;;25.25;17.15;;;4.80;99.90;;;;;;5093743;28;20176;-57
2022/01/19 00:10:16;;;;;;;29.25;18.55;;;4.80;99.90;;;;;;5109366;28;20269;-57
2022/01/19 00:12:43;;;;;;;30.70;17.70;;;4.70;99.90;;;;;;5092459;28;20201;-57
2022/01/19 00:15:09;;;;;;;30.00;16.70;;;4.80;99.90;;;;;;5093634;28;20276;-57
2022/01/19 00:17:35;;;;;;;25.83;18.15;;;4.70;99.90;;;;;;5093194;28;20330;-57
2022/01/19 00:20:01;;;;;;;27.15;16.75;;;4.70;99.90;;;;;;5093274;28;20625;-57
2022/01/19 00:22:27;;;;;;;29.70;17.08;;;4.60;99.90;;;;;;5093599;28;20280;-57
2022/01/19 00:24:53;;;;;;;28.92;17.88;;;4.60;99.90;;;;;;5092370;28;20197;-57
2022/01/19 00:27:18;;;;;;;27.10;18.15;;;4.60;99.90;;;;;;5093566;28;20734;-57
2022/01/19 00:29:44;;;;;;;26.30;17.05;;;4.50;99.90;;;;;;5092158;28;20177;-57
2022/01/19 00:32:10;;;;;;;26.70;17.67;;;4.40;99.90;;;;;;5092099;28;20284;-57
2022/01/19 00:34:35;;;;;;;26.95;17.48;;;4.30;99.90;;;;;;5093188;28;20184;-58
2022/01/19 00:37:01;;;;;;;27.65;15.85;;;4.30;99.90;;;;;;5097967;28;20224;-57
2022/01/19 00:39:31;;;;;;;27.73;17.63;;;4.20;99.90;;;;;;5096230;28;20260;-57
2022/01/19 00:41:57;;;;;;;25.35;15.82;;;4.10;99.90;;;;;;5092326;28;20187;-57
2022/01/19 00:44:23;;;;;;;26.40;18.25;;;4.00;99.90;;;;;;5093425;28;20182;-57
2022/01/19 00:46:48;;;;;;;29.30;16.77;;;4.00;99.90;;;;;;5093133;28;20181;-57
2022/01/19 00:49:14;;;;;;;25.83;16.88;;;3.90;99.90;;;;;;5092156;28;20319;-57
2022/01/19 00:51:40;;;;;;;26.00;16.55;;;3.90;99.90;;;;;;5093397;28;20177;-57
2022/01/19 00:54:06;;;;;;;23.95;15.07;;;3.80;99.90;;;;;;5093086;28;20252;-57
2022/01/19 00:56:34;;;;;;;27.10;17.27;;;3.70;99.90;;;;;;5092165;28;20185;-57
2022/01/19 00:59:00;;;;;;;28.08;17.33;;;3.70;99.90;;;;;;5093004;28;20211;-58
2022/01/19 01:01:26;;;;;;;25.60;16.08;;;3.60;99.90;;;;;;5092078;28;20185;-56
2022/01/19 01:03:51;;;;;;;24.95;16.10;;;3.60;99.90;;;;;;5092896;28;20189;-56
2022/01/19 01:06:18;;;;;;;26.55;17.38;;;3.60;99.90;;;;;;5092012;28;20181;-56
2022/01/19 01:08:44;;;;;;;27.15;16.67;;;3.60;99.90;;;;;;5091911;28;20177;-56
2022/01/19 01:11:10;;;;;;;25.77;16.70;;;3.50;99.90;;;;;;5092851;28;20243;-58
2022/01/19 01:16:33;;;;;;;25.90;16.52;;;3.40;99.90;;;;;;5097204;28;20243;-56
2022/01/19 01:18:59;;;;;;;25.35;16.70;;;3.40;99.90;;;;;;5096803;28;20186;-56
2022/01/19 01:21:25;;;;;;;24.95;16.20;;;3.30;99.90;;;;;;5096894;28;20180;-56
2022/01/19 01:23:51;;;;;;;26.52;16.98;;;3.30;99.90;;;;;;5096828;28;20181;-58
2022/01/19 01:26:17;;;;;;;27.00;16.75;;;3.30;99.90;;;;;;5095851;28;20677;-56
2022/01/19 01:28:43;;;;;;;24.35;17.20;;;3.20;99.90;;;;;;5097054;28;20178;-56
2022/01/19 01:31:09;;;;;;;26.20;16.80;;;3.10;99.90;;;;;;5096667;28;20177;-56
2022/01/19 01:33:36;;;;;;;28.67;17.48;;;3.20;99.90;;;;;;5096212;28;20220;-58
2022/01/19 01:36:02;;;;;;;28.10;17.17;;;3.20;99.90;;;;;;5095368;28;20186;-58
2022/01/19 01:38:28;;;;;;;28.67;16.98;;;3.20;99.90;;;;;;5096718;28;20191;-57
2022/01/19 01:40:54;;;;;;;26.90;17.47;;;3.20;99.90;;;;;;5095387;28;20622;-58
2022/01/19 01:43:20;;;;;;;23.33;15.77;;;3.10;99.90;;;;;;5096460;28;20185;-57
2022/01/19 01:45:49;;;;;;;23.77;15.70;;;3.00;99.90;;;;;;5096369;28;20177;-58
2022/01/19 01:48:18;;;;;;;23.60;16.43;;;3.00;99.90;;;;;;5095201;28;20599;-57
2022/01/19 01:53:31;;;;;;;26.10;16.10;;;3.00;99.90;;;;;;5095049;28;20216;-58
2022/01/19 01:56:07;;;;;;;23.23;16.40;;;2.90;99.90;;;;;;5094940;28;20192;-57
2022/01/19 01:58:35;;;;;;;27.80;16.00;;;2.90;99.90;;;;;;5096139;28;20164;-58
2022/01/19 02:01:02;;;;;;;24.33;16.40;;;2.80;99.90;;;;;;5096120;28;20176;-58
2022/01/19 02:03:28;;;;;;;29.27;17.87;;;2.80;99.90;;;;;;5094779;28;20181;-58
2022/01/19 02:08:49;;;;;;;23.37;17.33;;;2.90;99.90;;;;;;5095988;28;20181;-59
2022/01/19 02:16:49;;;;;;;23.67;16.13;;;3.00;99.90;;;;;;5094702;28;20293;-58
2022/01/19 02:24:30;;;;;;;27.17;18.20;;;3.00;99.90;;;;;;5097217;28;20212;-58
2022/01/19 02:30:21;;;;;;;27.20;17.83;;;3.10;99.90;;;;;;5095630;28;20615;-58
2022/01/19 02:40:32;;;;;;;32.40;18.97;;;3.20;99.90;;;;;;5094423;28;20180;-58
2022/01/19 02:50:57;;;;;;;33.87;21.63;;;3.50;99.90;;;;;;5095146;28;20218;-56
2022/01/19 02:53:23;;;;;;;33.20;20.88;;;3.50;99.90;;;;;;5093741;28;20208;-58
2022/01/19 02:55:49;;;;;;;34.65;22.25;;;3.60;99.90;;;;;;5093722;28;20254;-57
2022/01/19 02:58:18;;;;;;;31.17;21.27;;;3.60;99.90;;;;;;5093723;28;20181;-58
2022/01/19 03:08:42;;;;;;;35.67;23.65;;;3.80;99.90;;;;;;5094870;28;20204;-58
2022/01/19 03:09:02;;;;;;;33.55;22.42;;;3.90;99.90;;;;;;5094445;28;20269;-58
2022/01/19 03:11:28;;;;;;;34.58;22.02;;;3.90;99.90;;;;;;5094661;28;20181;-57
2022/01/19 03:13:54;;;;;;;34.58;22.38;;;4.00;99.90;;;;;;5093287;28;20221;-57
2022/01/19 03:16:20;;;;;;;34.80;23.50;;;3.90;99.90;;;;;;5093317;28;20197;-57
2022/01/19 03:18:48;;;;;;;29.50;20.47;;;3.90;99.90;;;;;;5093732;28;20174;-57
2022/01/19 03:21:14;;;;;;;31.55;19.27;;;3.90;99.90;;;;;;5094312;28;20538;-58
2022/01/19 03:23:40;;;;;;;30.70;19.67;;;3.90;99.90;;;;;;5093209;28;20200;-58
2022/01/19 03:26:06;;;;;;;27.25;18.58;;;3.90;99.90;;;;;;5094503;28;20173;-58
2022/01/19 03:28:34;;;;;;;27.17;19.47;;;3.80;99.90;;;;;;5093097;28;20184;-58
2022/01/19 03:30:59;;;;;;;28.85;18.75;;;3.80;99.90;;;;;;5094516;28;20173;-58
2022/01/19 03:33:25;;;;;;;27.23;18.80;;;3.70;99.90;;;;;;5094522;28;20220;-58
2022/01/19 03:35:52;;;;;;;25.38;17.77;;;3.80;99.90;;;;;;5076185;28;20201;-58
2022/01/19 03:38:18;;;;;;;24.85;18.45;;;3.80;99.90;;;;;;5092305;28;20234;-58
2022/01/19 03:40:44;;;;;;;22.80;17.63;;;3.80;99.90;;;;;;5094264;28;20199;-58
2022/01/19 03:43:10;;;;;;;25.90;18.65;;;3.70;99.90;;;;;;5094147;28;20254;-58
2022/01/19 03:45:37;;;;;;;27.77;20.07;;;3.70;99.90;;;;;;5094209;28;20276;-58
2022/01/19 03:50:42;;;;;;;26.10;19.63;;;3.80;99.90;;;;;;5094072;28;20165;-58
2022/01/19 03:53:07;;;;;;;29.47;20.37;;;3.80;99.90;;;;;;5092750;28;20208;-58
2022/01/19 03:55:33;;;;;;;26.92;21.25;;;3.90;99.90;;;;;;5075766;28;20189;-58
2022/01/19 03:57:59;;;;;;;28.10;21.87;;;3.90;99.90;;;;;;5092592;28;20222;-58
2022/01/19 04:00:24;;;;;;;31.08;22.77;;;3.80;99.90;;;;;;5092614;28;20181;-58
2022/01/19 04:02:50;;;;;;;29.90;23.08;;;3.90;99.90;;;;;;5093837;28;20185;-58
2022/01/19 04:05:39;;;;;;;30.35;22.95;;;3.90;99.90;;;;;;5093851;28;20169;-58
2022/01/19 04:08:05;;;;;;;36.17;24.02;;;3.90;99.90;;;;;;5094020;28;20611;-58
2022/01/19 04:10:30;;;;;;;28.85;22.05;;;3.90;99.90;;;;;;5094501;28;20181;-58
2022/01/19 04:13:09;;;;;;;30.33;21.85;;;3.90;99.90;;;;;;5095517;28;20216;-58
2022/01/19 04:15:36;;;;;;;29.58;22.58;;;3.80;99.90;;;;;;5094407;28;20198;-58
2022/01/19 04:18:03;;;;;;;35.58;23.05;;;3.80;99.90;;;;;;5092405;28;20196;-58
2022/01/19 04:20:29;;;;;;;32.58;21.60;;;3.80;99.90;;;;;;5093363;28;20188;-58
2022/01/19 04:22:55;;;;;;;31.55;22.05;;;3.90;99.90;;;;;;5093563;28;20193;-58
2022/01/19 04:25:21;;;;;;;27.67;21.07;;;3.90;99.90;;;;;;5093328;28;20181;-58
2022/01/19 04:27:46;;;;;;;28.55;20.90;;;4.00;99.90;;;;;;5093544;28;20255;-58
2022/01/19 04:30:14;;;;;;;28.60;19.92;;;3.90;99.90;;;;;;5093334;28;20181;-58
2022/01/19 04:32:51;;;;;;;26.20;19.83;;;3.90;99.90;;;;;;5093402;28;20212;-58
2022/01/19 04:35:22;;;;;;;27.13;18.48;;;3.80;99.90;;;;;;5093507;28;20197;-58
2022/01/19 05:05:22;;;;;;;24.00;17.92;;;3.90;99.90;;;;;;5096254;28;20176;-57
2022/01/19 05:13:58;;;;;;;23.42;17.30;;;4.10;99.90;;;;;;5096034;28;20577;-58
2022/01/19 05:15:53;;;;;;;21.02;16.23;;;4.00;99.90;;;;;;5095849;28;20196;-57
2022/01/19 05:18:19;;;;;;;22.95;16.50;;;3.90;99.90;;;;;;5096692;28;20291;-58
2022/01/19 05:20:47;;;;;;;23.90;17.23;;;4.00;99.90;;;;;;5095725;28;20264;-57
2022/01/19 05:23:12;;;;;;;22.52;16.52;;;4.20;99.90;;;;;;5097176;28;20204;-57
2022/01/19 05:25:39;;;;;;;22.45;16.95;;;4.10;99.90;;;;;;5095547;28;20193;-57
2022/01/19 05:28:05;;;;;;;23.73;17.52;;;4.10;99.90;;;;;;5096751;28;20238;-58
2022/01/19 05:30:31;;;;;;;20.55;16.67;;;4.10;99.90;;;;;;5096268;28;20193;-57
2022/01/19 05:32:56;;;;;;;25.33;16.83;;;4.10;99.90;;;;;;5095042;28;20578;-57
2022/01/19 05:35:22;;;;;;;22.65;17.15;;;4.20;99.90;;;;;;5096621;28;20172;-57
2022/01/19 05:37:48;;;;;;;24.42;16.92;;;4.20;99.90;;;;;;5095452;28;20181;-57
2022/01/19 05:40:14;;;;;;;24.17;17.80;;;4.20;99.90;;;;;;5096518;28;20615;-57
2022/01/19 05:42:40;;;;;;;25.48;18.23;;;4.20;99.90;;;;;;5096424;28;20177;-58
2022/01/19 05:45:06;;;;;;;22.83;16.55;;;4.30;99.90;;;;;;5096086;28;20606;-57
2022/01/19 05:47:32;;;;;;;23.42;17.30;;;4.30;99.90;;;;;;5096900;28;20189;-57
2022/01/19 05:49:57;;;;;;;24.85;18.17;;;4.40;99.90;;;;;;5096387;28;20178;-57
2022/01/19 05:52:23;;;;;;;22.45;17.65;;;4.40;99.90;;;;;;5096588;28;20257;-58
2022/01/19 05:54:49;;;;;;;23.58;17.63;;;4.40;99.90;;;;;;5096548;28;20179;-58
2022/01/19 05:57:15;;;;;;;23.60;17.73;;;4.50;99.90;;;;;;5096901;28;20177;-58
2022/01/19 05:59:40;;;;;;;23.25;17.33;;;4.40;99.90;;;;;;5097290;28;20176;-57
2022/01/19 06:02:06;;;;;;;23.65;17.65;;;4.40;99.90;;;;;;5095901;28;20619;-57
2022/01/19 06:04:32;;;;;;;22.73;18.52;;;4.40;99.90;;;;;;5096201;28;20173;-57
2022/01/19 06:06:57;;;;;;;21.95;17.75;;;4.30;99.90;;;;;;5095875;28;20566;-56
2022/01/19 06:12:04;;;;;;;21.90;17.30;;;4.30;99.90;;;;;;5095634;28;20161;-56
2022/01/19 06:14:31;;;;;;;22.17;18.52;;;4.20;99.90;;;;;;5095923;28;20211;-57
2022/01/19 06:16:57;;;;;;;25.30;18.33;;;4.20;99.90;;;;;;5095823;28;20188;-57
2022/01/19 06:19:23;;;;;;;24.75;18.60;;;4.40;99.90;;;;;;5109033;27;20177;-58
2022/01/19 06:21:49;;;;;;;22.08;17.20;;;4.40;99.90;;;;;;5115270;28;20632;-57
2022/01/19 06:24:14;;;;;;;22.00;17.25;;;4.50;99.90;;;;;;5115666;28;20259;-57
2022/01/19 06:26:40;;;;;;;24.75;19.42;;;4.50;99.90;;;;;;5114638;28;20175;-58
2022/01/19 06:29:06;;;;;;;23.50;19.80;;;4.70;99.90;;;;;;5114795;28;20173;-57
2022/01/19 06:31:32;;;;;;;25.90;21.33;;;4.60;99.90;;;;;;5115815;28;20208;-58
2022/01/19 06:33:58;;;;;;;26.30;19.83;;;4.60;99.90;;;;;;5115514;28;20228;-57
2022/01/19 06:36:23;;;;;;;21.85;18.02;;;4.50;99.90;;;;;;5116142;28;20183;-57
2022/01/19 06:38:49;;;;;;;21.67;17.50;;;4.50;99.90;;;;;;5115909;28;20674;-57
2022/01/19 06:41:15;;;;;;;24.90;18.25;;;4.50;99.90;;;;;;5115346;28;20649;-57
2022/01/19 06:43:41;;;;;;;19.50;17.00;;;4.50;99.90;;;;;;5115657;28;20189;-58
2022/01/19 06:46:06;;;;;;;21.50;17.60;;;4.50;99.90;;;;;;5115626;28;20616;-57
2022/01/19 06:48:32;;;;;;;21.92;16.85;;;4.50;99.90;;;;;;5115540;28;20192;-57
2022/01/19 06:50:58;;;;;;;23.65;17.13;;;4.50;99.90;;;;;;5115572;28;20185;-57
2022/01/19 06:53:24;;;;;;;20.95;16.45;;;4.40;99.90;;;;;;5115520;28;20292;-57
2022/01/19 06:55:49;;;;;;;21.35;17.50;;;4.50;99.90;;;;;;5115420;28;20631;-58
2022/01/19 06:58:16;;;;;;;20.50;16.70;;;4.50;99.90;;;;;;5115561;28;20173;-57
2022/01/19 07:00:42;;;;;;;19.58;16.52;;;4.40;99.90;;;;;;5115249;28;20578;-58
2022/01/19 07:03:09;;;;;;;22.08;16.60;;;4.50;99.90;;;;;;5115311;28;20325;-58
2022/01/19 07:05:35;;;;;;;19.75;16.45;;;4.40;99.90;;;;;;5114929;28;20500;-58
2022/01/19 07:08:00;;;;;;;23.65;16.83;;;4.40;99.90;;;;;;5115228;28;20260;-57
2022/01/19 07:10:31;;;;;;;19.35;16.30;;;4.40;99.90;;;;;;5115134;28;20256;-58
2022/01/19 07:13:00;;;;;;;20.40;15.60;;;4.40;99.90;;;;;;5112713;28;20204;-58
2022/01/19 07:15:26;;;;;;;20.05;16.70;;;4.50;99.90;;;;;;5114706;28;20187;-57
2022/01/19 07:17:51;;;;;;;20.60;15.48;;;4.50;99.90;;;;;;5114976;28;20271;-57
2022/01/19 07:20:17;;;;;;;20.35;15.85;;;4.50;99.90;;;;;;5115175;28;20215;-57
2022/01/19 07:22:43;;;;;;;21.25;16.27;;;4.50;99.90;;;;;;5114771;28;20173;-57
2022/01/19 07:25:09;;;;;;;19.10;15.52;;;4.40;99.90;;;;;;5114887;27;20212;-57
2022/01/19 07:27:35;;;;;;;19.17;15.40;;;4.50;99.90;;;;;;5114713;28;20173;-57
2022/01/19 07:30:01;;;;;;;17.60;15.02;;;4.50;99.90;;;;;;5114494;28;20655;-57
2022/01/19 07:32:30;;;;;;;19.70;16.42;;;4.50;99.90;;;;;;5114912;28;20209;-58
2022/01/19 07:34:56;;;;;;;20.25;16.95;;;4.50;99.90;;;;;;5114530;28;20270;-58
2022/01/19 07:37:22;;;;;;;22.27;16.88;;;4.50;99.90;;;;;;5114358;28;20201;-57
2022/01/19 07:39:48;;;;;;;21.42;17.48;;;4.50;99.90;;;;;;5114153;28;20211;-58
2022/01/19 07:42:13;;;;;;;21.73;16.25;;;4.60;99.90;;;;;;5114397;28;20199;-58
2022/01/19 07:44:39;;;;;;;19.92;17.73;;;4.60;99.90;;;;;;5116108;28;20181;-58
2022/01/19 07:47:06;;;;;;;20.38;17.05;;;4.70;99.90;;;;;;5117368;28;20177;-58
2022/01/19 07:49:32;;;;;;;18.73;15.50;;;4.70;99.90;;;;;;5115102;28;20621;-58
2022/01/19 07:51:58;;;;;;;19.33;15.57;;;4.70;99.90;;;;;;5114424;28;20175;-57
2022/01/19 07:54:24;;;;;;;18.20;16.05;;;4.70;99.90;;;;;;5114148;28;20286;-58
2022/01/19 07:56:49;;;;;;;19.52;15.25;;;4.60;99.90;;;;;;5114222;28;20206;-57
2022/01/19 07:59:16;;;;;;;18.45;15.75;;;4.60;99.90;;;;;;5114173;28;20213;-57
2022/01/19 08:01:42;;;;;;;19.30;15.07;;;4.60;99.90;;;;;;5114168;28;20168;-58
2022/01/19 08:04:08;;;;;;;19.58;15.40;;;4.60;99.90;;;;;;5113950;27;20268;-57
2022/01/19 08:06:34;;;;;;;16.35;14.68;;;4.60;99.90;;;;;;5113736;28;20255;-57
2022/01/19 08:09:00;;;;;;;18.33;14.95;;;4.70;99.90;;;;;;5114151;28;20259;-57
2022/01/19 08:11:25;;;;;;;17.30;15.05;;;4.70;99.90;;;;;;5113907;28;20172;-57
2022/01/19 08:13:51;;;;;;;18.15;15.63;;;4.70;99.90;;;;;;5113948;28;20295;-57
2022/01/19 08:16:17;;;;;;;18.58;14.73;;;4.70;99.90;;;;;;5113747;28;20253;-57
2022/01/19 08:18:43;;;;;;;15.88;14.20;;;4.70;99.90;;;;;;5113774;28;20169;-57
2022/01/19 08:21:08;;;;;;;17.98;15.10;;;4.70;99.90;;;;;;5113984;28;20207;-57
2022/01/19 08:23:34;;;;;;;16.38;14.65;;;4.70;99.90;;;;;;5113630;28;20172;-57
2022/01/19 08:26:00;;;;;;;19.90;16.38;;;4.70;99.90;;;;;;5113585;28;20364;-57
2022/01/19 08:28:25;;;;;;;17.67;15.10;;;4.80;99.90;;;;;;5113857;28;20221;-57
2022/01/19 08:30:51;;;;;;;17.65;15.02;;;4.80;99.90;;;;;;5113833;28;20181;-57
2022/01/19 08:33:17;;;;;;;18.48;16.30;;;4.80;99.90;;;;;;5113875;28;20237;-58
2022/01/19 08:35:43;;;;;;;19.38;15.80;;;4.80;99.90;;;;;;5113820;28;20174;-57
2022/01/19 08:38:08;;;;;;;16.85;14.98;;;4.90;99.90;;;;;;5113928;28;20176;-57
2022/01/19 08:40:36;;;;;;;18.77;15.65;;;4.90;99.90;;;;;;5113729;28;20176;-57
2022/01/19 08:43:04;;;;;;;17.40;14.77;;;4.80;99.90;;;;;;5113690;28;20226;-57
2022/01/19 08:45:30;;;;;;;17.92;15.35;;;4.80;99.90;;;;;;5114089;28;20274;-57
2022/01/19 08:47:55;;;;;;;21.52;16.70;;;4.90;99.90;;;;;;5113395;28;20182;-57
2022/01/19 08:50:22;;;;;;;18.48;15.70;;;4.90;99.90;;;;;;5113643;28;20688;-57
2022/01/19 08:52:48;;;;;;;19.85;15.50;;;5.00;99.90;;;;;;5113567;28;20291;-57
2022/01/19 08:55:14;;;;;;;17.55;15.65;;;5.00;99.90;;;;;;5113395;28;20172;-58
2022/01/19 08:57:40;;;;;;;19.40;16.08;;;5.10;99.90;;;;;;5113664;28;20172;-57
2022/01/19 09:00:09;;;;;;;19.30;15.82;;;5.00;99.90;;;;;;5112399;28;20175;-57
2022/01/19 09:02:35;;;;;;;19.15;16.13;;;5.00;99.90;;;;;;5113332;28;20295;-57
2022/01/19 09:05:02;;;;;;;19.30;16.92;;;4.90;99.90;;;;;;5113546;28;20212;-57
2022/01/19 09:07:28;;;;;;;20.92;16.08;;;5.10;99.90;;;;;;5113220;28;20176;-58
2022/01/19 09:09:54;;;;;;;18.50;16.17;;;4.90;99.90;;;;;;5113493;28;20517;-57
2022/01/19 09:12:19;;;;;;;18.98;16.15;;;4.90;99.90;;;;;;5113111;28;20169;-57
2022/01/19 09:14:45;;;;;;;20.08;17.85;;;5.00;99.90;;;;;;5113414;28;20204;-57
2022/01/19 09:17:11;;;;;;;19.20;16.25;;;5.10;99.90;;;;;;5112056;28;20216;-57
2022/01/19 09:19:39;;;;;;;20.48;17.30;;;5.00;99.90;;;;;;5113386;28;20271;-57
2022/01/19 09:22:06;;;;;;;19.83;16.10;;;5.00;99.90;;;;;;5113400;28;20638;-58
2022/01/19 09:24:37;;;;;;;18.75;16.85;;;5.00;99.90;;;;;;5113325;28;20189;-58
2022/01/19 09:27:04;;;;;;;20.05;16.30;;;5.00;99.90;;;;;;5113436;28;20165;-57
2022/01/19 09:29:30;;;;;;;19.60;15.32;;;5.10;99.90;;;;;;5113383;28;20247;-58
2022/01/19 09:31:56;;;;;;;19.42;16.75;;;5.10;99.90;;;;;;5113689;28;20306;-58
2022/01/19 09:34:22;;;;;;;21.20;17.67;;;5.10;99.90;;;;;;5115843;28;20196;-57
2022/01/19 09:36:48;;;;;;;18.15;15.55;;;5.10;99.90;;;;;;5118639;28;20189;-57
2022/01/19 09:39:24;;;;;;;18.35;16.20;;;5.00;99.90;;;;;;5116899;28;20178;-57
2022/01/19 09:41:51;;;;;;;21.08;17.50;;;5.10;99.90;;;;;;5116916;28;20168;-57
2022/01/19 09:44:17;;;;;;;20.30;17.65;;;5.10;99.90;;;;;;5116739;28;20178;-57
2022/01/19 09:46:44;;;;;;;18.95;15.98;;;5.10;99.90;;;;;;5116792;28;20617;-57
2022/01/19 09:49:11;;;;;;;22.90;16.42;;;5.10;99.90;;;;;;5116836;28;20499;-57
2022/01/19 09:51:40;;;;;;;22.33;17.17;;;5.10;99.90;;;;;;5116739;28;20165;-57
2022/01/19 09:54:06;;;;;;;19.90;16.88;;;5.20;99.90;;;;;;5116535;28;20200;-58
2022/01/19 09:56:32;;;;;;;21.25;17.02;;;5.10;99.90;;;;;;5116518;28;20230;-57
2022/01/19 09:58:58;;;;;;;21.95;17.70;;;5.20;99.90;;;;;;5116304;28;20172;-57
2022/01/19 10:01:25;;;;;;;20.63;17.00;;;5.20;99.90;;;;;;5116635;28;20169;-57
2022/01/19 10:03:52;;;;;;;22.80;18.08;;;5.10;99.90;;;;;;5116398;28;20502;-57
2022/01/19 10:06:22;;;;;;;21.60;17.80;;;5.20;99.90;;;;;;5116369;28;20195;-57
2022/01/19 10:08:56;;;;;;;20.35;17.90;;;5.20;99.90;;;;;;5116416;28;20236;-57
2022/01/19 10:17:03;;;;;;;22.23;17.48;;;5.20;99.90;;;;;;5116052;28;20594;-57
2022/01/19 10:19:31;;;;;;;20.50;18.05;;;5.20;99.90;;;;;;5116188;28;20462;-57
2022/01/19 10:22:11;;;;;;;23.60;18.52;;;5.30;99.90;;;;;;5116091;28;20202;-57
2022/01/19 10:24:38;;;;;;;22.27;18.92;;;5.20;99.90;;;;;;5116360;28;20173;-58
2022/01/19 10:27:34;;;;;;;22.20;18.65;;;5.20;99.90;;;;;;5115988;28;20229;-57
2022/01/19 10:30:02;;;;;;;24.20;20.13;;;5.30;99.90;;;;;;5116013;28;20156;-57
2022/01/19 10:32:30;;;;;;;23.88;19.40;;;5.40;99.90;;;;;;5115661;28;20172;-57
2022/01/19 10:34:56;;;;;;;21.83;18.92;;;5.40;99.90;;;;;;5115843;28;20169;-57
2022/01/19 10:37:24;;;;;;;23.38;19.35;;;5.40;99.90;;;;;;5115834;28;20255;-57
2022/01/19 10:39:51;;;;;;;24.73;19.75;;;5.40;99.90;;;;;;5115791;28;20169;-58
2022/01/19 10:42:27;;;;;;;23.33;19.27;;;5.40;99.90;;;;;;5115374;27;20610;-57
2022/01/19 10:45:03;;;;;;;22.88;19.48;;;5.40;99.90;;;;;;5115677;28;20547;-57
2022/01/19 10:47:53;;;;;;;23.42;20.52;;;5.40;99.90;;;;;;5115548;28;20186;-57
2022/01/19 10:50:30;;;;;;;21.70;18.65;;;5.60;99.90;;;;;;5115612;28;20149;-58
2022/01/19 10:53:01;;;;;;;25.90;20.13;;;5.50;99.90;;;;;;5114943;28;20198;-57
2022/01/19 10:55:42;;;;;;;22.60;19.02;;;5.40;99.90;;;;;;5115188;28;20168;-57
2022/01/19 10:58:15;;;;;;;22.73;19.02;;;5.40;99.90;;;;;;5115450;28;20165;-58
2022/01/19 11:00:49;;;;;;;22.45;19.42;;;5.40;99.90;;;;;;5115313;28;20240;-57
2022/01/19 11:03:21;;;;;;;28.30;19.48;;;5.50;99.90;;;;;;5115293;28;20187;-57
2022/01/19 11:06:06;;;;;;;25.08;19.48;;;5.40;99.90;;;;;;5115277;28;20177;-58
2022/01/19 11:08:33;;;;;;;23.08;20.48;;;5.50;99.90;;;;;;5115189;28;20614;-58
2022/01/19 11:11:01;;;;;;;22.20;18.70;;;5.60;99.90;;;;;;5115122;28;20263;-57
2022/01/19 11:13:31;;;;;;;22.58;20.08;;;5.60;99.90;;;;;;5114969;28;20239;-57
2022/01/19 11:16:02;;;;;;;24.95;20.73;;;5.50;99.90;;;;;;5114808;28;20226;-57
2022/01/19 11:18:30;;;;;;;25.27;20.73;;;5.50;99.90;;;;;;5114861;28;20235;-57
2022/01/19 11:21:01;;;;;;;28.75;22.10;;;5.60;99.90;;;;;;5115140;28;20559;-57
2022/01/19 11:24:00;;;;;;;24.30;21.38;;;5.70;99.90;;;;;;5118454;28;20251;-58
2022/01/19 11:26:31;;;;;;;27.38;21.52;;;5.70;99.90;;;;;;5116541;28;20617;-57
2022/01/19 11:29:18;;;;;;;25.20;21.48;;;5.90;99.90;;;;;;5114805;28;20171;-57
2022/01/19 11:31:44;;;;;;;23.35;20.63;;;5.80;99.90;;;;;;5114804;28;20536;-57
2022/01/19 11:34:10;;;;;;;23.33;20.90;;;5.90;99.90;;;;;;5114564;28;20206;-57
2022/01/19 11:36:40;;;;;;;25.80;20.75;;;5.90;99.90;;;;;;5114529;28;20177;-57
2022/01/19 11:39:12;;;;;;;23.83;20.40;;;5.90;99.90;;;;;;5114694;28;20157;-57
2022/01/19 11:41:49;;;;;;;26.45;21.02;;;6.00;99.90;;;;;;5114560;28;20295;-58
2022/01/19 11:44:19;;;;;;;26.30;20.52;;;6.00;99.90;;;;;;5114418;28;20191;-57
2022/01/19 11:46:48;;;;;;;26.77;21.30;;;6.30;99.90;;;;;;5114356;28;20176;-57
2022/01/19 11:49:17;;;;;;;26.45;21.02;;;6.40;99.90;;;;;;5113839;28;20603;-57
2022/01/19 11:51:53;;;;;;;23.13;20.00;;;6.40;99.90;;;;;;5114395;28;20168;-57
2022/01/19 11:54:30;;;;;;;28.15;20.52;;;6.40;99.90;;;;;;5114379;28;20193;-57
2022/01/19 11:56:58;;;;;;;25.63;20.98;;;6.40;99.90;;;;;;5114278;28;20315;-57
2022/01/19 11:59:26;;;;;;;27.63;22.48;;;6.40;99.90;;;;;;5113668;28;20176;-57
2022/01/19 12:01:52;;;;;;;28.77;22.10;;;6.50;99.90;;;;;;5114221;28;20173;-58
2022/01/19 12:04:22;;;;;;;27.52;21.10;;;6.50;99.90;;;;;;5114234;28;20161;-57
2022/01/19 12:06:49;;;;;;;30.33;21.77;;;6.40;99.90;;;;;;5114230;28;20173;-57
2022/01/19 12:09:15;;;;;;;26.92;21.00;;;6.40;99.90;;;;;;5113853;28;20165;-57
2022/01/19 12:11:50;;;;;;;28.13;23.92;;;6.30;99.90;;;;;;5114062;28;20184;-57
2022/01/19 12:14:34;;;;;;;29.48;21.23;;;6.20;99.90;;;;;;5113996;28;20235;-58
2022/01/19 12:17:07;;;;;;;29.10;21.85;;;6.30;99.90;;;;;;5112607;28;20246;-57
2022/01/19 12:19:41;;;;;;;28.00;21.88;;;6.40;99.90;;;;;;5114038;28;20678;-57
2022/01/19 12:22:27;;;;;;;27.25;21.42;;;6.40;99.90;;;;;;5114002;28;20164;-57
2022/01/19 12:24:58;;;;;;;28.70;23.65;;;6.50;99.90;;;;;;5113630;28;20675;-57
2022/01/19 12:27:36;;;;;;;28.15;22.17;;;6.30;99.90;;;;;;5113823;28;20158;-57
2022/01/19 12:30:07;;;;;;;30.13;22.05;;;6.30;99.90;;;;;;5113568;28;20175;-57
2022/01/19 12:32:34;;;;;;;32.47;23.75;;;6.30;99.90;;;;;;5113259;28;20156;-58
2022/01/19 12:35:16;;;;;;;32.72;24.23;;;6.40;99.90;;;;;;5113285;28;20161;-58
2022/01/19 12:37:49;;;;;;;29.00;23.65;;;6.50;99.90;;;;;;5113168;28;20595;-57
2022/01/19 12:40:18;;;;;;;29.10;22.02;;;6.60;99.90;;;;;;5113269;28;20180;-57
2022/01/19 12:42:46;;;;;;;30.83;22.00;;;6.60;99.90;;;;;;5113142;28;20755;-57
2022/01/19 12:45:26;;;;;;;28.98;21.95;;;6.60;99.90;;;;;;5112989;28;20170;-57
2022/01/19 12:47:55;;;;;;;27.67;24.15;;;6.60;99.90;;;;;;5113613;28;20176;-57
2022/01/19 12:50:20;;;;;;;32.25;24.13;;;6.70;99.90;;;;;;5113117;28;20172;-57
2022/01/19 12:52:49;;;;;;;30.95;23.65;;;6.50;99.90;;;;;;5112994;28;20169;-58
2022/01/19 12:55:23;;;;;;;30.17;22.67;;;6.60;99.90;;;;;;5113024;28;20187;-58
2022/01/19 12:57:51;;;;;;;30.52;22.50;;;6.50;99.90;;;;;;5113132;28;20164;-58
2022/01/19 13:00:23;;;;;;;28.77;22.00;;;6.50;99.90;;;;;;5113464;28;20162;-57
2022/01/19 13:02:49;;;;;;;31.77;22.25;;;6.60;99.90;;;;;;5106433;28;20279;-58
2022/01/19 13:05:19;;;;;;;27.85;22.63;;;6.60;99.90;;;;;;5112861;28;20189;-58
2022/01/19 13:07:53;;;;;;;27.38;22.52;;;6.50;99.90;;;;;;5112941;28;20248;-58
2022/01/19 13:10:41;;;;;;;30.42;22.73;;;6.50;99.90;;;;;;5115747;28;20172;-58
2022/01/19 13:15:40;;;;;;;28.88;21.75;;;6.40;99.90;;;;;;5119395;27;20263;-57
2022/01/19 13:18:05;;;;;;;28.77;22.70;;;6.50;99.90;;;;;;5117120;28;20195;-57
2022/01/19 13:20:31;;;;;;;35.83;22.30;;;6.50;99.90;;;;;;5116692;28;20184;-57
2022/01/19 13:22:57;;;;;;;30.92;21.83;;;6.50;99.90;;;;;;5116150;28;20268;-57
2022/01/19 13:25:29;;;;;;;30.25;23.30;;;6.50;99.90;;;;;;5116653;28;20169;-57
2022/01/19 13:27:58;;;;;;;33.55;22.45;;;6.60;99.90;;;;;;5116646;28;20176;-57
2022/01/19 13:30:31;;;;;;;29.25;23.55;;;6.60;99.90;;;;;;5116590;28;20176;-57
2022/01/19 13:32:57;;;;;;;30.92;23.38;;;6.60;99.90;;;;;;5115175;28;20303;-57
2022/01/19 13:35:26;;;;;;;28.35;22.90;;;6.70;99.90;;;;;;5116479;28;20231;-57
2022/01/19 13:37:58;;;;;;;30.63;23.33;;;6.70;99.90;;;;;;5116415;28;20174;-58
2022/01/19 13:40:26;;;;;;;30.63;22.90;;;6.60;99.90;;;;;;5116176;27;20192;-57
2022/01/19 13:43:04;;;;;;;29.42;22.38;;;6.80;99.90;;;;;;5116714;28;20172;-58
2022/01/19 13:50:45;;;;;;;38.03;24.00;;;6.90;99.90;;;;;;5116088;28;20208;-57
2022/01/19 13:53:13;;;;;;;28.80;24.77;;;6.80;99.90;;;;;;5116046;28;20657;-58
2022/01/19 13:55:39;;;;;;;34.70;24.48;;;6.80;99.90;;;;;;5116186;27;20169;-57
2022/01/19 13:58:12;;;;;;;35.97;24.95;;;6.70;99.90;;;;;;5116156;28;20173;-57
2022/01/19 14:00:53;;;;;;;30.35;24.23;;;6.80;99.90;;;;;;5115962;28;20160;-58
2022/01/19 14:03:21;;;;;;;32.10;23.38;;;6.90;99.90;;;;;;5116059;28;20487;-58
2022/01/19 14:05:51;;;;;;;32.72;23.95;;;6.80;99.90;;;;;;5115909;28;20200;-58
2022/01/19 14:08:37;;;;;;;30.63;23.65;;;6.80;99.90;;;;;;5115850;28;20261;-57
2022/01/19 14:11:03;;;;;;;36.20;24.42;;;6.80;99.90;;;;;;5115838;28;20498;-58
2022/01/19 14:13:35;;;;;;;31.55;22.92;;;6.80;99.90;;;;;;5115693;28;20196;-58
2022/01/19 14:16:21;;;;;;;35.83;24.20;;;6.70;99.90;;;;;;5115435;28;20177;-57